Plymouth, IL

11:43 PM CDT on April 27, 2017 (GMT -0500)
| | Change Station
Active Advisory: Flood Warning

Elev -9999 ft 0.00 °N, 0.00 °E | Updated 0 second ago

Mostly Cloudy
Mostly Cloudy
°F
Feels Like °F
N
Wind Variable Wind from North
Gusts mph

Today
High -- | Low -- °F
--% Chance of Precip.
Yesterday
High -- | Low -- °F
Precip. -- in
Pressure 29.88 in
Visibility 10.0 miles
Clouds Clear
Dew Point Not available.
Humidity Not available.
Rainfall --
Snow Depth Not available.
6:07 AM 7:55 PM
Waxing Crescent, 4% visible
METAR KMQB 280435Z AUTO 18007KT 10SM CLR 09/07 A2988 RMK AO2 T00920066
Pressure 29.88 in
Visibility 10.0 miles
Clouds Clear
Dew Point Not available.
Humidity Not available.
Rainfall --
Snow Depth Not available.
6:07 AM 7:55 PM
Waxing Crescent, 4% visible
METAR KMQB 280435Z AUTO 18007KT 10SM CLR 09/07 A2988 RMK AO2 T00920066

Get Your Daily Forecast Email!

Thanks for signing up!

Be on the lookout for a verification email in your inbox.

You'll start receiving severe weather alerts in your inbox..

×

10-Day Weather Forecast

Almanac

Astronomy

Apr. 27, 2017 Rise Set
Actual Time
Civil Twilight
Nautical Twilight
Astronomical Twilight
Moon
Length of Visible Light
Length of Day
Tomorrow will be .
, % of the Moon is Illuminated

Today's Extremes

State Highs State Lows

Community

WunderPhotos

WunderBlog® & News

Nearby

Air Quality

  Air Quality AQ Index Pollutant
Not available.

Snow Depth

Station Depth Elevation

Earthquake Activity

City Distance Mag. Time & Date
Minimum magnitude displayed is 2.5.

Coastal Water Temperatures

Place Temperature

Stations

Nearby Weather Stations

Station Location Temp. Windchill Dew Point Humidity Wind Precip. Elev Updated Type
                   

Watches & Warnings

Flood Warning
Issued: 9:46 PM CDT Apr. 27, 2017 – National Weather Service

... Flood Warning remains in effect until further notice...

The Flood Warning continues for
the Mississippi River at Burlington.
* Until further notice.
* At 9:00 PM Thursday the stage was 15.6 feet... and steady.
* Flood stage is 15.0 feet.
* Minor flooding is occurring and is forecast to continue.
* Forecast... rise to 15.8 feet Sunday morning... then begin falling.
* Impact... at 15.0 feet... agricultural flooding occurs.


Lat... Lon 4086 9110 4084 9105 4062 9108 4061 9142
     4067 9118